Time;durP1;ratioP1;P1;durP2;ratioP2;P2;SDS_P1;SDS_P2;PMS_P1;PMS_P2;Temp;Humidity;BMP_temperature;BMP_pressure;BME280_temperature;BME280_humidity;BME280_pressure;Samples;Min_cycle;Max_cycle;Signal;HPM_P1;HPM_P2
2022/05/09 00:00:12;;;;;;;7.03;5.40;;;;;;;;;;4993379;28;20034;-82
2022/05/09 00:02:38;;;;;;;7.35;5.93;;;;;;;;;;4995437;28;20733;-82
2022/05/09 00:05:05;;;;;;;6.78;5.60;;;;;;;;;;4994557;28;20069;-82
2022/05/09 00:07:31;;;;;;;7.00;5.75;;;;;;;;;;4994296;28;20062;-82
2022/05/09 00:09:56;;;;;;;6.50;5.32;;;;;;;;;;4994304;28;20042;-81
2022/05/09 00:12:22;;;;;;;7.65;5.65;;;;;;;;;;4994866;28;20088;-82
2022/05/09 00:14:47;;;;;;;6.00;5.03;;;;;;;;;;4994181;28;20395;-81
2022/05/09 00:17:13;;;;;;;6.03;5.07;;;;;;;;;;4976444;28;20034;-82
2022/05/09 00:19:38;;;;;;;7.82;5.65;;;;;;;;;;4993245;28;20046;-82
2022/05/09 00:22:05;;;;;;;6.57;5.03;;;;;;;;;;4994442;28;20030;-82
2022/05/09 00:24:30;;;;;;;7.18;4.97;;;;;;;;;;4993301;28;20057;-82
2022/05/09 00:26:57;;;;;;;6.28;5.38;;;;;;;;;;4993851;28;20483;-82
2022/05/09 00:29:23;;;;;;;6.10;5.50;;;;;;;;;;4994343;28;20038;-82
2022/05/09 00:31:51;;;;;;;8.45;5.05;;;;;;;;;;4993245;28;20491;-81
2022/05/09 00:34:19;;;;;;;6.97;5.90;;;;;;;;;;4996442;28;20037;-81
2022/05/09 00:36:46;;;;;;;7.85;6.47;;;;;;;;;;4997734;28;20361;-82
2022/05/09 00:39:12;;;;;;;8.77;6.30;;;;;;;;;;4997766;28;20045;-81
2022/05/09 00:41:39;;;;;;;8.52;6.00;;;;;;;;;;4997620;28;20084;-81
2022/05/09 00:44:09;;;;;;;6.30;5.55;;;;;;;;;;4997605;28;20045;-81
2022/05/09 00:46:39;;;;;;;8.70;6.22;;;;;;;;;;4997904;28;20031;-81
2022/05/09 00:49:13;;;;;;;6.32;5.50;;;;;;;;;;4996721;28;20030;-81
2022/05/09 00:51:38;;;;;;;7.90;5.95;;;;;;;;;;4997925;28;20407;-81
2022/05/09 00:54:04;;;;;;;8.15;5.88;;;;;;;;;;4997522;28;20038;-81
2022/05/09 00:56:46;;;;;;;6.43;5.50;;;;;;;;;;4997226;28;20042;-81
2022/05/09 00:59:17;;;;;;;6.53;5.78;;;;;;;;;;4997410;28;20046;-81
2022/05/09 01:01:44;;;;;;;10.82;7.00;;;;;;;;;;4997379;28;20395;-81
2022/05/09 01:04:16;;;;;;;7.75;6.55;;;;;;;;;;4997206;28;20048;-81
2022/05/09 01:06:42;;;;;;;10.40;7.65;;;;;;;;;;4997290;28;20038;-81
2022/05/09 01:09:10;;;;;;;11.95;7.50;;;;;;;;;;4997069;28;20502;-81
2022/05/09 01:11:37;;;;;;;8.23;6.40;;;;;;;;;;4996938;28;20113;-81
2022/05/09 01:14:24;;;;;;;15.52;7.10;;;;;;;;;;4995759;28;20073;-81
2022/05/09 01:16:51;;;;;;;9.70;7.10;;;;;;;;;;4995713;28;20058;-81
2022/05/09 01:19:28;;;;;;;7.95;6.53;;;;;;;;;;4995713;28;20097;-81
2022/05/09 01:21:54;;;;;;;29.13;7.22;;;;;;;;;;4996066;28;20092;-81
2022/05/09 01:24:22;;;;;;;12.45;7.07;;;;;;;;;;4996974;28;20035;-81
2022/05/09 01:26:48;;;;;;;17.88;6.50;;;;;;;;;;4997344;28;20109;-80
2022/05/09 01:29:29;;;;;;;32.90;6.25;;;;;;;;;;4996889;28;20484;-81
2022/05/09 01:31:56;;;;;;;10.60;5.90;;;;;;;;;;4995761;28;20030;-81
2022/05/09 01:34:23;;;;;;;12.90;5.95;;;;;;;;;;4996890;28;20042;-81
2022/05/09 01:37:00;;;;;;;11.07;6.60;;;;;;;;;;4996936;28;20393;-81
2022/05/09 01:39:26;;;;;;;10.88;6.85;;;;;;;;;;4997091;28;20664;-81
2022/05/09 01:41:52;;;;;;;9.45;6.25;;;;;;;;;;4996755;28;20042;-81
2022/05/09 01:44:19;;;;;;;9.27;6.03;;;;;;;;;;4996776;28;20038;-81
2022/05/09 01:49:32;;;;;;;7.55;6.43;;;;;;;;;;4996888;28;20038;-81
2022/05/09 01:51:59;;;;;;;6.93;5.88;;;;;;;;;;4996779;28;20038;-81
2022/05/09 01:54:25;;;;;;;7.57;5.22;;;;;;;;;;4995247;28;20045;-80
2022/05/09 01:56:51;;;;;;;8.70;5.13;;;;;;;;;;4996032;28;20052;-80
2022/05/09 01:59:16;;;;;;;8.55;5.30;;;;;;;;;;4996478;28;20498;-81
2022/05/09 02:01:46;;;;;;;6.90;5.45;;;;;;;;;;4996539;28;20076;-81
2022/05/09 02:04:12;;;;;;;7.25;5.47;;;;;;;;;;4996363;28;20038;-81
2022/05/09 02:06:39;;;;;;;7.30;5.60;;;;;;;;;;4996190;28;20041;-81
2022/05/09 02:09:09;;;;;;;5.55;4.82;;;;;;;;;;4995513;28;20038;-81
2022/05/09 02:11:34;;;;;;;7.35;4.68;;;;;;;;;;4996372;28;20038;-81
2022/05/09 02:14:01;;;;;;;5.07;4.47;;;;;;;;;;4996210;28;20039;-81
2022/05/09 02:16:27;;;;;;;5.70;4.68;;;;;;;;;;4994785;28;20038;-81
2022/05/09 02:18:53;;;;;;;6.10;4.90;;;;;;;;;;4996122;28;20057;-81
2022/05/09 02:21:18;;;;;;;5.53;4.45;;;;;;;;;;4996220;28;20034;-81
2022/05/09 02:23:44;;;;;;;6.43;5.55;;;;;;;;;;4996018;28;20034;-82
2022/05/09 02:26:09;;;;;;;5.72;4.68;;;;;;;;;;4995613;28;20057;-82
2022/05/09 02:28:35;;;;;;;5.65;4.70;;;;;;;;;;4994304;28;20486;-81
2022/05/09 02:31:01;;;;;;;5.45;4.72;;;;;;;;;;4995851;28;20069;-81
2022/05/09 02:33:27;;;;;;;5.75;5.10;;;;;;;;;;4995822;28;20042;-81
2022/05/09 02:35:52;;;;;;;7.45;5.40;;;;;;;;;;4995505;28;20022;-82
2022/05/09 02:38:18;;;;;;;5.55;4.72;;;;;;;;;;4995808;28;20117;-81
2022/05/09 02:40:44;;;;;;;5.75;5.10;;;;;;;;;;4994683;28;20026;-81
2022/05/09 02:43:10;;;;;;;5.47;4.60;;;;;;;;;;4995398;28;20045;-81
2022/05/09 02:45:35;;;;;;;5.22;4.25;;;;;;;;;;4995737;28;20049;-82
2022/05/09 02:48:01;;;;;;;4.75;4.03;;;;;;;;;;4995650;28;20030;-81
2022/05/09 02:50:27;;;;;;;5.05;3.83;;;;;;;;;;4993986;28;20041;-81
2022/05/09 02:52:53;;;;;;;4.18;3.78;;;;;;;;;;4995332;28;20045;-81
2022/05/09 02:55:21;;;;;;;4.00;3.47;;;;;;;;;;4995185;28;20034;-81
2022/05/09 02:57:47;;;;;;;4.75;3.95;;;;;;;;;;4994492;28;20031;-81
2022/05/09 03:00:25;;;;;;;4.10;3.70;;;;;;;;;;4995617;28;20041;-81
2022/05/09 03:05:39;;;;;;;5.75;4.20;;;;;;;;;;4994896;28;20042;-81
2022/05/09 03:08:06;;;;;;;5.70;4.68;;;;;;;;;;4977295;28;20045;-81
2022/05/09 03:10:32;;;;;;;5.50;4.80;;;;;;;;;;4995170;28;20034;-81
2022/05/09 03:13:01;;;;;;;5.72;4.60;;;;;;;;;;4995275;28;20109;-81
2022/05/09 03:15:28;;;;;;;5.30;4.78;;;;;;;;;;4994989;28;20121;-80
2022/05/09 03:17:54;;;;;;;5.53;4.47;;;;;;;;;;4994900;28;20026;-81
2022/05/09 03:20:21;;;;;;;10.95;7.25;;;;;;;;;;4995284;28;20030;-81
2022/05/09 03:22:48;;;;;;;7.38;5.85;;;;;;;;;;4995229;28;20042;-81
2022/05/09 03:25:13;;;;;;;7.65;6.25;;;;;;;;;;4993631;28;20411;-81
2022/05/09 03:27:39;;;;;;;6.25;5.10;;;;;;;;;;4995137;28;20030;-81
2022/05/09 03:30:07;;;;;;;5.72;5.10;;;;;;;;;;4995208;28;20027;-80
2022/05/09 03:32:34;;;;;;;5.80;5.10;;;;;;;;;;4994270;28;20069;-80
2022/05/09 03:34:59;;;;;;;5.35;4.68;;;;;;;;;;4994758;28;20407;-80
2022/05/09 03:37:24;;;;;;;5.97;4.63;;;;;;;;;;4994928;28;20521;-81
2022/05/09 03:39:50;;;;;;;5.50;4.80;;;;;;;;;;4995011;28;20466;-81
2022/05/09 03:42:15;;;;;;;5.47;4.63;;;;;;;;;;4993576;28;20383;-81
2022/05/09 03:44:41;;;;;;;6.15;4.68;;;;;;;;;;4993283;28;20666;-81
2022/05/09 03:47:09;;;;;;;5.32;4.28;;;;;;;;;;4993658;28;20066;-81
2022/05/09 03:49:35;;;;;;;8.23;4.68;;;;;;;;;;4994878;28;20031;-80
2022/05/09 03:52:00;;;;;;;6.90;5.65;;;;;;;;;;4994410;28;20499;-81
2022/05/09 03:54:25;;;;;;;6.45;5.00;;;;;;;;;;4993558;28;20422;-81
2022/05/09 03:56:51;;;;;;;6.20;5.07;;;;;;;;;;4993457;28;20034;-81
2022/05/09 03:59:17;;;;;;;5.90;4.93;;;;;;;;;;4993769;28;20042;-81
2022/05/09 04:01:42;;;;;;;6.20;5.57;;;;;;;;;;4993872;28;20027;-81
2022/05/09 04:04:08;;;;;;;6.97;5.50;;;;;;;;;;4994792;28;20337;-80
2022/05/09 04:06:34;;;;;;;9.40;4.97;;;;;;;;;;4994976;28;20041;-80
2022/05/09 04:09:04;;;;;;;6.10;4.88;;;;;;;;;;4996647;28;20038;-81
2022/05/09 04:11:29;;;;;;;7.93;4.53;;;;;;;;;;4998920;28;20046;-81
2022/05/09 04:13:54;;;;;;;5.70;4.88;;;;;;;;;;4981010;28;20038;-80
2022/05/09 04:19:04;;;;;;;6.30;4.55;;;;;;;;;;4998454;28;20089;-81
2022/05/09 04:21:30;;;;;;;5.47;4.70;;;;;;;;;;4998124;28;20042;-81
2022/05/09 04:23:58;;;;;;;5.95;4.88;;;;;;;;;;4998084;28;20034;-80
2022/05/09 04:26:30;;;;;;;10.30;5.15;;;;;;;;;;4997232;28;20030;-80
2022/05/09 04:28:55;;;;;;;7.00;5.60;;;;;;;;;;4996993;28;20457;-81
2022/05/09 04:31:22;;;;;;;24.65;6.15;;;;;;;;;;4980017;28;20113;-80
2022/05/09 04:33:49;;;;;;;12.52;6.40;;;;;;;;;;4996611;28;20065;-81
2022/05/09 04:36:16;;;;;;;25.00;6.50;;;;;;;;;;4998074;28;20049;-82
2022/05/09 04:38:43;;;;;;;13.02;6.60;;;;;;;;;;4997915;28;20034;-81
2022/05/09 04:41:10;;;;;;;10.52;6.93;;;;;;;;;;4997387;28;20034;-81
2022/05/09 04:43:37;;;;;;;15.13;6.63;;;;;;;;;;4996045;28;20034;-81
2022/05/09 04:46:04;;;;;;;16.27;6.50;;;;;;;;;;4997490;28;20045;-81
2022/05/09 04:48:30;;;;;;;13.55;6.68;;;;;;;;;;4996099;28;20432;-81
2022/05/09 04:50:56;;;;;;;12.70;6.75;;;;;;;;;;4998096;28;20030;-81
2022/05/09 04:53:22;;;;;;;11.00;6.72;;;;;;;;;;4997896;28;20074;-81
2022/05/09 04:55:47;;;;;;;14.63;8.20;;;;;;;;;;4995864;28;20384;-82
2022/05/09 04:58:15;;;;;;;10.68;8.00;;;;;;;;;;4997624;28;20030;-82
2022/05/09 05:00:41;;;;;;;13.35;8.02;;;;;;;;;;4997774;28;20053;-82
2022/05/09 05:03:06;;;;;;;10.98;7.80;;;;;;;;;;4996322;28;20110;-80
2022/05/09 05:05:32;;;;;;;11.10;6.35;;;;;;;;;;4997551;28;20376;-82
2022/05/09 05:07:57;;;;;;;12.20;6.20;;;;;;;;;;4979651;28;20039;-82
2022/05/09 05:10:22;;;;;;;9.52;6.38;;;;;;;;;;4997312;28;20610;-81
2022/05/09 05:12:48;;;;;;;7.00;5.65;;;;;;;;;;4996594;28;20138;-81
2022/05/09 05:15:14;;;;;;;10.77;6.63;;;;;;;;;;4995402;28;20035;-81
2022/05/09 05:17:40;;;;;;;8.50;6.50;;;;;;;;;;4996667;28;20034;-81
2022/05/09 05:20:10;;;;;;;9.65;6.30;;;;;;;;;;4995417;28;20038;-81
2022/05/09 05:22:44;;;;;;;9.27;6.80;;;;;;;;;;4996779;28;20042;-82
2022/05/09 05:25:11;;;;;;;7.05;6.00;;;;;;;;;;4996854;28;20501;-82
2022/05/09 05:27:37;;;;;;;6.45;5.60;;;;;;;;;;4996401;28;20026;-82
2022/05/09 05:30:04;;;;;;;4.78;3.88;;;;;;;;;;4995977;28;20130;-81
2022/05/09 05:32:34;;;;;;;7.55;5.90;;;;;;;;;;4994153;28;20034;-82
2022/05/09 05:35:00;;;;;;;7.20;5.60;;;;;;;;;;4957372;28;20043;-81
2022/05/09 05:37:25;;;;;;;7.30;6.00;;;;;;;;;;4957536;29;20460;-81
2022/05/09 05:39:51;;;;;;;7.35;5.95;;;;;;;;;;4956276;29;20035;-81
2022/05/09 05:42:18;;;;;;;7.97;5.78;;;;;;;;;;4957477;28;20039;-81
2022/05/09 05:44:45;;;;;;;7.28;5.93;;;;;;;;;;4957512;28;20069;-81
2022/05/09 05:47:13;;;;;;;7.25;5.80;;;;;;;;;;4981132;28;20091;-80
2022/05/09 05:49:40;;;;;;;14.73;7.28;;;;;;;;;;4976377;28;20043;-81
2022/05/09 05:52:07;;;;;;;10.82;6.20;;;;;;;;;;4990791;28;20077;-81
2022/05/09 05:54:36;;;;;;;7.80;5.93;;;;;;;;;;4976406;28;20035;-81
2022/05/09 05:57:03;;;;;;;8.75;6.43;;;;;;;;;;4988839;28;20038;-81
2022/05/09 05:59:29;;;;;;;7.63;6.55;;;;;;;;;;4974463;28;20042;-82
2022/05/09 06:01:58;;;;;;;10.20;6.50;;;;;;;;;;4975301;28;20031;-82
2022/05/09 06:04:24;;;;;;;8.38;6.80;;;;;;;;;;4975828;28;20027;-81
2022/05/09 06:06:50;;;;;;;7.53;6.45;;;;;;;;;;4975572;28;21102;-82
2022/05/09 06:09:16;;;;;;;7.55;6.50;;;;;;;;;;4976738;28;20038;-82
2022/05/09 06:11:42;;;;;;;9.98;6.82;;;;;;;;;;4976735;28;20534;-82
2022/05/09 06:14:09;;;;;;;11.65;8.35;;;;;;;;;;4975379;28;20133;-82
2022/05/09 06:16:36;;;;;;;17.50;10.93;;;;;;;;;;4976839;28;20034;-82
2022/05/09 06:19:05;;;;;;;12.52;8.02;;;;;;;;;;4976725;28;20077;-84
2022/05/09 06:21:34;;;;;;;11.40;7.32;;;;;;;;;;4976570;28;20373;-82
2022/05/09 06:24:04;;;;;;;7.57;6.07;;;;;;;;;;4976162;28;20385;-82
2022/05/09 06:26:30;;;;;;;8.05;6.22;;;;;;;;;;4976116;28;20511;-82
2022/05/09 06:28:55;;;;;;;11.05;6.22;;;;;;;;;;4976003;28;20069;-82
2022/05/09 06:31:20;;;;;;;8.75;6.43;;;;;;;;;;4976655;28;20084;-82
2022/05/09 06:33:46;;;;;;;14.27;6.38;;;;;;;;;;4975451;28;20060;-83
2022/05/09 06:36:11;;;;;;;8.40;6.53;;;;;;;;;;4976157;28;20038;-82
2022/05/09 06:38:37;;;;;;;8.88;6.72;;;;;;;;;;4974982;28;20027;-82
2022/05/09 06:41:02;;;;;;;7.95;6.22;;;;;;;;;;4976249;28;20074;-82
2022/05/09 06:43:30;;;;;;;8.40;6.60;;;;;;;;;;4975979;28;20037;-81
2022/05/09 06:45:56;;;;;;;8.25;6.78;;;;;;;;;;4975980;28;20045;-81
2022/05/09 06:48:22;;;;;;;11.68;6.80;;;;;;;;;;4974748;28;20037;-80
2022/05/09 06:50:47;;;;;;;12.38;6.90;;;;;;;;;;4974669;28;20928;-79
2022/05/09 06:53:13;;;;;;;8.95;7.40;;;;;;;;;;4979295;28;20047;-81
2022/05/09 06:55:38;;;;;;;9.35;7.65;;;;;;;;;;4978064;28;20130;-80
2022/05/09 06:58:16;;;;;;;9.40;7.82;;;;;;;;;;4979388;28;20046;-81
2022/05/09 07:00:42;;;;;;;9.65;8.20;;;;;;;;;;4979603;28;20115;-81
2022/05/09 07:03:07;;;;;;;13.10;8.68;;;;;;;;;;4978686;28;20047;-81
2022/05/09 07:05:33;;;;;;;11.70;9.13;;;;;;;;;;4959697;29;20050;-81
2022/05/09 07:07:58;;;;;;;12.23;9.15;;;;;;;;;;4972831;28;20054;-81
2022/05/09 07:10:26;;;;;;;12.25;9.52;;;;;;;;;;4973760;28;20035;-80
2022/05/09 07:12:54;;;;;;;14.70;10.20;;;;;;;;;;4957674;28;20043;-81
2022/05/09 07:15:26;;;;;;;13.85;9.90;;;;;;;;;;4957599;28;20047;-83
2022/05/09 07:17:53;;;;;;;15.93;10.43;;;;;;;;;;4960723;28;20035;-84
2022/05/09 07:20:21;;;;;;;11.73;9.48;;;;;;;;;;4960454;28;20038;-82
2022/05/09 07:22:47;;;;;;;14.70;10.23;;;;;;;;;;4960451;28;20031;-83
2022/05/09 07:25:15;;;;;;;10.88;8.57;;;;;;;;;;4960995;28;20032;-83
2022/05/09 07:27:43;;;;;;;13.07;9.38;;;;;;;;;;4975992;28;20042;-83
2022/05/09 07:30:11;;;;;;;12.10;8.98;;;;;;;;;;4961309;28;20035;-86
2022/05/09 07:32:37;;;;;;;10.93;8.80;;;;;;;;;;4962193;28;20126;-82
2022/05/09 07:35:04;;;;;;;12.20;8.57;;;;;;;;;;4961587;28;20071;-82
2022/05/09 07:37:30;;;;;;;10.50;8.20;;;;;;;;;;4960999;28;20063;-82
2022/05/09 07:39:55;;;;;;;10.80;8.07;;;;;;;;;;4961045;28;20125;-82
2022/05/09 07:42:22;;;;;;;12.07;8.82;;;;;;;;;;4959921;29;20038;-82
2022/05/09 07:44:48;;;;;;;12.38;8.18;;;;;;;;;;4958639;28;20062;-82
2022/05/09 07:47:15;;;;;;;10.77;8.70;;;;;;;;;;4958910;28;20125;-84
2022/05/09 07:49:40;;;;;;;10.00;8.07;;;;;;;;;;4975009;28;20132;-82
2022/05/09 07:52:08;;;;;;;10.35;8.18;;;;;;;;;;4974854;28;20046;-82
2022/05/09 07:54:33;;;;;;;10.85;8.57;;;;;;;;;;4960347;29;20039;-82
2022/05/09 07:56:59;;;;;;;11.38;8.55;;;;;;;;;;4960264;29;20031;-82
2022/05/09 07:59:24;;;;;;;11.25;8.48;;;;;;;;;;4961290;29;20031;-83
2022/05/09 08:01:52;;;;;;;9.43;7.80;;;;;;;;;;4961015;29;20123;-83
2022/05/09 08:04:18;;;;;;;10.52;6.88;;;;;;;;;;4976388;28;20079;-82
2022/05/09 08:06:43;;;;;;;9.18;7.20;;;;;;;;;;4961848;28;20086;-83
2022/05/09 08:09:09;;;;;;;9.27;7.50;;;;;;;;;;4961631;28;20035;-83
2022/05/09 08:11:35;;;;;;;9.80;7.60;;;;;;;;;;4961557;28;20098;-83
2022/05/09 08:14:00;;;;;;;11.65;7.75;;;;;;;;;;4961580;28;20058;-83
2022/05/09 08:16:29;;;;;;;9.70;7.80;;;;;;;;;;4961337;28;20106;-82
2022/05/09 08:18:56;;;;;;;9.15;7.38;;;;;;;;;;4975181;28;20095;-83
2022/05/09 08:21:22;;;;;;;10.35;7.43;;;;;;;;;;4974645;28;20035;-83
2022/05/09 08:23:49;;;;;;;12.13;7.57;;;;;;;;;;4959536;28;20041;-83
2022/05/09 08:26:15;;;;;;;7.93;6.63;;;;;;;;;;4973905;28;20460;-83
2022/05/09 08:28:42;;;;;;;8.30;6.47;;;;;;;;;;4961192;28;20040;-83
2022/05/09 08:31:08;;;;;;;9.13;7.00;;;;;;;;;;4960278;28;20515;-83
2022/05/09 08:33:33;;;;;;;9.25;7.32;;;;;;;;;;4959428;28;20046;-84
2022/05/09 08:36:00;;;;;;;9.40;6.38;;;;;;;;;;4974886;28;20035;-83
2022/05/09 08:38:26;;;;;;;11.98;6.70;;;;;;;;;;4960445;28;20539;-83
2022/05/09 08:41:05;;;;;;;10.07;6.95;;;;;;;;;;4960509;28;20034;-83
2022/05/09 08:44:02;;;;;;;11.60;7.75;;;;;;;;;;4959185;28;20429;-84
2022/05/09 08:46:45;;;;;;;9.98;7.20;;;;;;;;;;4974667;28;20039;-82
2022/05/09 08:49:29;;;;;;;9.57;7.43;;;;;;;;;;4974305;28;20047;-83
2022/05/09 08:52:06;;;;;;;11.18;7.43;;;;;;;;;;4960413;28;20415;-84
2022/05/09 08:54:32;;;;;;;10.63;7.88;;;;;;;;;;4959938;28;20051;-83
2022/05/09 08:57:02;;;;;;;9.25;6.90;;;;;;;;;;4962336;29;20043;-84
2022/05/09 08:59:39;;;;;;;8.82;6.53;;;;;;;;;;4963123;28;20099;-83
2022/05/09 09:02:14;;;;;;;8.60;6.72;;;;;;;;;;4963103;28;20571;-83
2022/05/09 09:04:47;;;;;;;10.90;7.60;;;;;;;;;;4961474;28;20039;-83
2022/05/09 09:07:34;;;;;;;13.27;7.40;;;;;;;;;;4962957;28;20031;-83
2022/05/09 09:10:19;;;;;;;11.95;7.18;;;;;;;;;;4960896;28;20500;-83
2022/05/09 09:12:50;;;;;;;9.43;6.50;;;;;;;;;;4961808;28;20137;-84
2022/05/09 09:15:38;;;;;;;8.10;6.05;;;;;;;;;;4961373;28;20665;-83
2022/05/09 09:18:09;;;;;;;9.43;6.15;;;;;;;;;;4976209;28;20031;-83
2022/05/09 09:20:53;;;;;;;12.15;5.80;;;;;;;;;;4979148;28;20039;-83
2022/05/09 09:23:31;;;;;;;6.50;5.50;;;;;;;;;;4961572;29;20050;-83
2022/05/09 09:26:08;;;;;;;8.23;5.65;;;;;;;;;;4961577;29;20047;-83
2022/05/09 09:28:49;;;;;;;8.48;6.07;;;;;;;;;;4960690;29;20035;-83
2022/05/09 09:31:36;;;;;;;7.97;6.18;;;;;;;;;;4960789;28;20146;-83
2022/05/09 09:34:26;;;;;;;7.32;5.93;;;;;;;;;;4975697;28;20039;-83
2022/05/09 09:37:18;;;;;;;9.02;5.68;;;;;;;;;;4960877;28;20046;-83
2022/05/09 09:39:44;;;;;;;8.35;5.60;;;;;;;;;;4960626;28;20051;-84
2022/05/09 09:42:09;;;;;;;6.57;5.65;;;;;;;;;;4961162;29;20037;-83
2022/05/09 09:44:38;;;;;;;7.68;5.60;;;;;;;;;;4959935;28;20440;-83
2022/05/09 09:47:07;;;;;;;7.72;6.30;;;;;;;;;;4959744;28;20493;-84
2022/05/09 09:49:43;;;;;;;8.98;5.82;;;;;;;;;;4960810;28;20062;-83
2022/05/09 09:52:24;;;;;;;10.55;5.80;;;;;;;;;;4959281;29;20043;-83
2022/05/09 09:54:56;;;;;;;10.23;5.70;;;;;;;;;;4958203;28;20501;-83
2022/05/09 09:57:30;;;;;;;8.40;6.20;;;;;;;;;;4958158;28;20027;-83
2022/05/09 09:59:57;;;;;;;8.98;6.07;;;;;;;;;;4960316;28;20487;-84
2022/05/09 10:02:26;;;;;;;9.57;6.68;;;;;;;;;;4961315;28;20043;-84
2022/05/09 10:04:56;;;;;;;11.68;6.93;;;;;;;;;;4960229;28;20035;-83
2022/05/09 10:07:33;;;;;;;8.88;7.10;;;;;;;;;;4959056;28;20046;-83
2022/05/09 10:10:10;;;;;;;8.73;6.55;;;;;;;;;;4960432;28;20078;-83
2022/05/09 10:12:36;;;;;;;12.15;7.10;;;;;;;;;;4975458;28;20106;-84
2022/05/09 10:15:38;;;;;;;8.38;6.15;;;;;;;;;;4962435;28;20038;-84
2022/05/09 10:18:19;;;;;;;11.57;5.93;;;;;;;;;;4962427;28;20039;-84
2022/05/09 10:20:48;;;;;;;8.20;6.13;;;;;;;;;;4978672;28;20039;-85
2022/05/09 10:26:27;;;;;;;9.30;6.85;;;;;;;;;;4962657;29;20031;-85
2022/05/09 10:28:59;;;;;;;9.65;5.75;;;;;;;;;;4962322;28;20043;-84
2022/05/09 10:31:32;;;;;;;7.22;6.03;;;;;;;;;;4963708;28;20039;-85
2022/05/09 10:34:06;;;;;;;7.72;5.88;;;;;;;;;;4963090;29;20050;-84
2022/05/09 10:36:54;;;;;;;6.85;5.57;;;;;;;;;;4962004;29;20046;-85
2022/05/09 10:39:23;;;;;;;7.03;6.20;;;;;;;;;;4977878;28;20067;-84
2022/05/09 10:41:54;;;;;;;6.53;5.45;;;;;;;;;;4963299;28;20510;-85
2022/05/09 10:44:34;;;;;;;7.25;5.38;;;;;;;;;;4963048;28;20065;-85
2022/05/09 10:47:16;;;;;;;6.68;5.78;;;;;;;;;;4962534;28;20039;-84
2022/05/09 10:49:52;;;;;;;7.05;5.68;;;;;;;;;;5004589;23;20058;-87
2022/05/09 10:52:48;;;;;;;6.30;5.00;;;;;;;;;;4995620;28;20074;-87
2022/05/09 10:55:23;;;;;;;7.13;5.20;;;;;;;;;;4994950;28;20038;-87
2022/05/09 10:58:00;;;;;;;6.18;5.57;;;;;;;;;;4994841;28;20030;-86
2022/05/09 11:00:31;;;;;;;7.60;5.03;;;;;;;;;;4968505;28;20034;-86
2022/05/09 11:03:04;;;;;;;6.47;5.18;;;;;;;;;;4993675;28;20058;-86
2022/05/09 11:05:42;;;;;;;8.20;5.28;;;;;;;;;;4993386;28;20034;-87
2022/05/09 11:08:25;;;;;;;7.50;5.55;;;;;;;;;;4994518;28;20045;-86
2022/05/09 11:11:19;;;;;;;6.05;4.63;;;;;;;;;;4977521;28;20046;-88
2022/05/09 11:13:53;;;;;;;;;;;;;;;;;;4994764;28;20057;-84
2022/05/09 11:16:36;;;;;;;7.93;5.07;;;;;;;;;;4976636;28;19972;-87
2022/05/09 11:19:29;;;;;;;6.43;4.83;;;;;;;;;;4993154;28;20092;-86
2022/05/09 11:22:19;;;;;;;7.05;4.93;;;;;;;;;;4976237;28;20045;-84
2022/05/09 11:24:47;;;;;;;6.07;5.18;;;;;;;;;;4992972;28;20069;-85
2022/05/09 11:27:26;;;;;;;7.15;4.78;;;;;;;;;;4993336;28;20030;-87
2022/05/09 11:30:10;;;;;;;7.72;5.43;;;;;;;;;;4992871;28;20145;-86
2022/05/09 11:32:41;;;;;;;7.13;5.13;;;;;;;;;;5003413;28;20034;-85
2022/05/09 11:35:36;;;;;;;6.28;4.88;;;;;;;;;;4993089;28;20042;-86
2022/05/09 11:38:06;;;;;;;9.63;5.13;;;;;;;;;;4977574;28;20030;-85
2022/05/09 11:40:37;;;;;;;7.97;5.45;;;;;;;;;;4993275;28;20038;-86
2022/05/09 11:43:34;;;;;;;7.15;4.70;;;;;;;;;;4995626;28;20030;-86
2022/05/09 11:46:11;;;;;;;7.55;5.28;;;;;;;;;;4993865;28;20096;-85
2022/05/09 11:49:09;;;;;;;7.70;5.03;;;;;;;;;;4993586;28;20343;-86
2022/05/09 11:51:51;;;;;;;6.28;5.20;;;;;;;;;;4961436;28;20049;-87
2022/05/09 11:54:29;;;;;;;6.97;5.00;;;;;;;;;;4976928;28;20384;-89
2022/05/09 11:57:13;;;;;;;6.40;5.07;;;;;;;;;;4994199;28;20384;-86
2022/05/09 11:59:48;;;;;;;13.90;5.10;;;;;;;;;;4994177;28;20039;-87
2022/05/09 12:02:14;;;;;;;5.40;4.55;;;;;;;;;;4992866;28;20038;-84
2022/05/09 12:04:45;;;;;;;7.95;4.50;;;;;;;;;;4995006;28;20038;-85
2022/05/09 12:07:28;;;;;;;6.30;5.10;;;;;;;;;;4995511;28;20090;-85
2022/05/09 12:10:07;;;;;;;7.32;4.60;;;;;;;;;;4993598;28;20034;-85
2022/05/09 12:12:43;;;;;;;6.22;4.97;;;;;;;;;;4994482;28;20050;-84
2022/05/09 12:15:30;;;;;;;9.07;4.70;;;;;;;;;;4993000;28;20398;-87
2022/05/09 12:17:58;;;;;;;5.85;4.43;;;;;;;;;;4993833;28;20046;-85
2022/05/09 12:20:26;;;;;;;6.90;4.70;;;;;;;;;;4993325;28;20022;-87
2022/05/09 12:22:54;;;;;;;9.80;4.65;;;;;;;;;;4992320;28;20041;-86
2022/05/09 12:25:44;;;;;;;7.35;5.00;;;;;;;;;;4975771;28;20060;-86
2022/05/09 12:28:30;;;;;;;5.53;4.55;;;;;;;;;;4999144;28;20399;-86
2022/05/09 12:31:00;;;;;;;7.80;4.55;;;;;;;;;;4995818;28;20042;-86
2022/05/09 12:33:37;;;;;;;8.52;4.65;;;;;;;;;;4996202;28;20380;-86
2022/05/09 12:36:06;;;;;;;6.80;4.70;;;;;;;;;;4996166;28;20092;-85
2022/05/09 12:38:36;;;;;;;8.88;4.60;;;;;;;;;;4996425;28;20026;-82
2022/05/09 12:41:13;;;;;;;6.53;4.80;;;;;;;;;;4997501;28;20038;-86
2022/05/09 12:43:44;;;;;;;6.45;4.05;;;;;;;;;;4997212;28;20038;-86
2022/05/09 12:46:18;;;;;;;8.88;4.47;;;;;;;;;;4997192;28;20038;-85
2022/05/09 12:48:44;;;;;;;5.80;4.93;;;;;;;;;;4979119;28;20086;-86
2022/05/09 12:51:12;;;;;;;7.78;4.82;;;;;;;;;;4996819;28;20034;-87
2022/05/09 12:53:39;;;;;;;8.32;5.10;;;;;;;;;;4997257;28;20064;-85
2022/05/09 12:56:16;;;;;;;6.45;4.72;;;;;;;;;;4997727;28;20042;-87
2022/05/09 12:58:48;;;;;;;7.38;4.47;;;;;;;;;;5000011;28;20033;-85
2022/05/09 13:01:25;;;;;;;7.13;4.82;;;;;;;;;;4997957;28;20038;-85
2022/05/09 13:03:54;;;;;;;5.25;4.15;;;;;;;;;;4981494;28;20030;-87
2022/05/09 13:06:26;;;;;;;10.07;4.38;;;;;;;;;;4999832;28;20129;-85
2022/05/09 13:08:51;;;;;;;8.23;4.68;;;;;;;;;;4999692;28;20068;-89
2022/05/09 13:11:28;;;;;;;6.03;4.80;;;;;;;;;;4998524;28;20128;-88
2022/05/09 13:13:58;;;;;;;6.32;4.60;;;;;;;;;;4999967;28;20030;-86
2022/05/09 13:16:32;;;;;;;6.65;4.32;;;;;;;;;;4998240;28;20057;-88
2022/05/09 13:18:59;;;;;;;6.93;4.07;;;;;;;;;;4998735;28;20121;-86
2022/05/09 13:21:30;;;;;;;5.65;4.13;;;;;;;;;;4982524;28;20038;-88
2022/05/09 13:23:56;;;;;;;5.82;4.32;;;;;;;;;;4999665;28;20113;-83
2022/05/09 13:26:25;;;;;;;5.97;4.10;;;;;;;;;;4997099;28;20022;-87
2022/05/09 13:28:57;;;;;;;6.95;4.10;;;;;;;;;;4997082;28;20035;-87
2022/05/09 13:31:28;;;;;;;5.95;4.18;;;;;;;;;;4998886;28;20034;-87
2022/05/09 13:33:54;;;;;;;6.10;4.00;;;;;;;;;;4997674;28;20067;-86
2022/05/09 13:36:26;;;;;;;5.72;4.25;;;;;;;;;;4998938;28;20026;-86
2022/05/09 13:38:52;;;;;;;7.10;4.40;;;;;;;;;;4999778;28;20034;-88
2022/05/09 13:41:24;;;;;;;6.05;4.07;;;;;;;;;;4996970;28;20077;-88
2022/05/09 13:43:56;;;;;;;9.20;4.40;;;;;;;;;;4980325;28;20053;-87
2022/05/09 13:46:27;;;;;;;7.85;4.03;;;;;;;;;;4980331;28;20040;-88
2022/05/09 13:48:57;;;;;;;5.05;3.88;;;;;;;;;;4997431;28;20053;-86
2022/05/09 13:51:35;;;;;;;5.60;3.63;;;;;;;;;;4979577;28;20487;-85
2022/05/09 13:54:04;;;;;;;9.50;3.85;;;;;;;;;;4997786;28;20038;-86
2022/05/09 13:56:32;;;;;;;5.40;3.72;;;;;;;;;;4997385;28;20042;-86
2022/05/09 13:59:05;;;;;;;7.18;3.60;;;;;;;;;;5009111;28;20046;-86
2022/05/09 14:01:41;;;;;;;4.65;3.72;;;;;;;;;;5002498;28;20038;-85
2022/05/09 14:04:07;;;;;;;6.15;3.83;;;;;;;;;;5000481;28;20060;-86
2022/05/09 14:06:36;;;;;;;5.57;3.20;;;;;;;;;;5001987;28;20078;-87
2022/05/09 14:09:23;;;;;;;7.05;3.58;;;;;;;;;;4999470;28;20027;-86
2022/05/09 14:11:58;;;;;;;5.35;3.45;;;;;;;;;;4983455;28;20398;-87
2022/05/09 14:14:37;;;;;;;4.28;3.40;;;;;;;;;;5001202;28;20038;-85
2022/05/09 14:17:07;;;;;;;5.90;3.25;;;;;;;;;;4981959;28;20069;-83
2022/05/09 14:19:36;;;;;;;5.10;3.50;;;;;;;;;;4999580;28;20125;-86
2022/05/09 14:22:13;;;;;;;4.07;3.20;;;;;;;;;;5000615;28;20038;-86
2022/05/09 14:29:36;;;;;;;6.13;3.45;;;;;;;;;;4984189;28;20030;-87
2022/05/09 14:30:15;;;;;;;5.47;3.30;;;;;;;;;;5000201;28;20034;-88
2022/05/09 14:32:46;;;;;;;6.70;3.25;;;;;;;;;;5000466;28;20060;-88
2022/05/09 14:35:14;;;;;;;7.32;3.40;;;;;;;;;;4998597;28;20561;-87
2022/05/09 14:37:51;;;;;;;5.05;3.55;;;;;;;;;;4999863;28;20538;-86
2022/05/09 14:40:24;;;;;;;5.05;3.45;;;;;;;;;;4981470;28;20038;-84
2022/05/09 14:42:57;;;;;;;5.72;3.30;;;;;;;;;;4998659;28;20049;-86
2022/05/09 14:45:27;;;;;;;6.65;3.67;;;;;;;;;;4980938;28;20045;-86
2022/05/09 14:47:56;;;;;;;10.50;4.05;;;;;;;;;;4998142;28;20099;-87
2022/05/09 14:50:30;;;;;;;4.93;3.42;;;;;;;;;;4996470;28;20126;-86
2022/05/09 14:52:58;;;;;;;;;;;;;;;;;;4993680;28;20038;-85
2022/05/09 14:58:20;;;;;;;5.90;3.75;;;;;;;;;;4997381;28;20403;-87
2022/05/09 15:00:52;;;;;;;6.10;3.72;;;;;;;;;;4997333;28;20507;-83
2022/05/09 15:03:22;;;;;;;6.90;3.70;;;;;;;;;;4979768;28;20082;-88
2022/05/09 15:05:48;;;;;;;6.97;4.30;;;;;;;;;;4996701;28;20045;-86
2022/05/09 15:08:15;;;;;;;6.13;3.75;;;;;;;;;;4996123;28;20094;-88
2022/05/09 15:10:42;;;;;;;4.95;3.80;;;;;;;;;;4980141;28;20031;-88
2022/05/09 15:13:14;;;;;;;7.90;3.65;;;;;;;;;;4997951;28;20462;-86
2022/05/09 15:15:42;;;;;;;5.28;3.85;;;;;;;;;;5000732;28;20035;-86